sensor_id;sensor_type;location;lat;lon;timestamp;P1;durP1;ratioP1;P2;durP2;ratioP2
80536;SDS011;69867;47.074;15.404;2024-03-08T00:01:37;12.38;;;5.78;;
80536;SDS011;69867;47.074;15.404;2024-03-08T00:04:03;9.75;;;5.25;;
80536;SDS011;69867;47.074;15.404;2024-03-08T00:06:28;13.20;;;5.88;;
80536;SDS011;69867;47.074;15.404;2024-03-08T00:08:54;12.18;;;5.70;;
80536;SDS011;69867;47.074;15.404;2024-03-08T00:11:19;9.95;;;5.35;;
80536;SDS011;69867;47.074;15.404;2024-03-08T00:13:44;8.90;;;5.28;;
80536;SDS011;69867;47.074;15.404;2024-03-08T00:16:10;8.45;;;4.30;;
80536;SDS011;69867;47.074;15.404;2024-03-08T00:18:35;10.43;;;5.25;;
80536;SDS011;69867;47.074;15.404;2024-03-08T00:21:01;12.85;;;6.30;;
80536;SDS011;69867;47.074;15.404;2024-03-08T00:23:26;11.55;;;6.28;;
80536;SDS011;69867;47.074;15.404;2024-03-08T00:25:52;14.07;;;6.40;;
80536;SDS011;69867;47.074;15.404;2024-03-08T00:28:17;12.55;;;6.35;;
80536;SDS011;69867;47.074;15.404;2024-03-08T00:30:42;14.50;;;7.10;;
80536;SDS011;69867;47.074;15.404;2024-03-08T00:33:08;12.63;;;6.50;;
80536;SDS011;69867;47.074;15.404;2024-03-08T00:35:33;12.38;;;5.90;;
80536;SDS011;69867;47.074;15.404;2024-03-08T00:37:58;10.50;;;5.68;;
80536;SDS011;69867;47.074;15.404;2024-03-08T00:40:24;9.70;;;4.90;;
80536;SDS011;69867;47.074;15.404;2024-03-08T00:42:49;11.80;;;6.10;;
80536;SDS011;69867;47.074;15.404;2024-03-08T00:45:14;12.88;;;5.88;;
80536;SDS011;69867;47.074;15.404;2024-03-08T00:47:40;16.90;;;7.70;;
80536;SDS011;69867;47.074;15.404;2024-03-08T00:50:05;15.10;;;7.05;;
80536;SDS011;69867;47.074;15.404;2024-03-08T00:52:31;15.98;;;6.95;;
80536;SDS011;69867;47.074;15.404;2024-03-08T00:54:56;15.10;;;7.20;;
80536;SDS011;69867;47.074;15.404;2024-03-08T00:57:22;14.20;;;7.63;;
80536;SDS011;69867;47.074;15.404;2024-03-08T00:59:47;15.07;;;7.28;;
80536;SDS011;69867;47.074;15.404;2024-03-08T01:02:12;16.48;;;7.65;;
80536;SDS011;69867;47.074;15.404;2024-03-08T01:04:38;13.02;;;7.70;;
80536;SDS011;69867;47.074;15.404;2024-03-08T01:07:03;16.20;;;7.85;;
80536;SDS011;69867;47.074;15.404;2024-03-08T01:09:29;15.52;;;7.63;;
80536;SDS011;69867;47.074;15.404;2024-03-08T01:11:54;14.13;;;7.85;;
80536;SDS011;69867;47.074;15.404;2024-03-08T01:14:20;16.02;;;7.22;;
80536;SDS011;69867;47.074;15.404;2024-03-08T01:16:46;16.55;;;8.40;;
80536;SDS011;69867;47.074;15.404;2024-03-08T01:19:12;13.50;;;7.18;;
80536;SDS011;69867;47.074;15.404;2024-03-08T01:21:37;16.75;;;7.75;;
80536;SDS011;69867;47.074;15.404;2024-03-08T01:24:02;15.20;;;6.53;;
80536;SDS011;69867;47.074;15.404;2024-03-08T01:26:28;14.02;;;7.18;;
80536;SDS011;69867;47.074;15.404;2024-03-08T01:28:53;15.63;;;8.18;;
80536;SDS011;69867;47.074;15.404;2024-03-08T01:31:19;16.20;;;7.72;;
80536;SDS011;69867;47.074;15.404;2024-03-08T01:33:44;14.93;;;7.57;;
80536;SDS011;69867;47.074;15.404;2024-03-08T01:36:09;14.45;;;7.88;;
80536;SDS011;69867;47.074;15.404;2024-03-08T01:38:35;19.02;;;8.38;;
80536;SDS011;69867;47.074;15.404;2024-03-08T01:41:00;15.60;;;7.00;;
80536;SDS011;69867;47.074;15.404;2024-03-08T01:43:26;16.05;;;7.55;;
80536;SDS011;69867;47.074;15.404;2024-03-08T01:45:53;13.20;;;6.57;;
80536;SDS011;69867;47.074;15.404;2024-03-08T01:48:19;14.43;;;6.18;;
80536;SDS011;69867;47.074;15.404;2024-03-08T01:50:45;16.02;;;7.63;;
80536;SDS011;69867;47.074;15.404;2024-03-08T01:53:11;14.52;;;8.02;;
80536;SDS011;69867;47.074;15.404;2024-03-08T01:55:36;16.65;;;8.00;;
80536;SDS011;69867;47.074;15.404;2024-03-08T01:58:03;15.55;;;8.10;;
80536;SDS011;69867;47.074;15.404;2024-03-08T02:03:00;17.08;;;8.13;;
80536;SDS011;69867;47.074;15.404;2024-03-08T02:05:26;16.08;;;8.32;;
80536;SDS011;69867;47.074;15.404;2024-03-08T02:07:52;17.65;;;8.60;;
80536;SDS011;69867;47.074;15.404;2024-03-08T02:10:18;16.73;;;7.80;;
80536;SDS011;69867;47.074;15.404;2024-03-08T02:12:43;17.90;;;8.50;;
80536;SDS011;69867;47.074;15.404;2024-03-08T02:15:09;18.83;;;9.15;;
80536;SDS011;69867;47.074;15.404;2024-03-08T02:17:34;16.70;;;8.48;;
80536;SDS011;69867;47.074;15.404;2024-03-08T02:20:00;19.52;;;9.02;;
80536;SDS011;69867;47.074;15.404;2024-03-08T02:22:25;19.77;;;9.70;;
80536;SDS011;69867;47.074;15.404;2024-03-08T02:24:51;21.23;;;10.50;;
80536;SDS011;69867;47.074;15.404;2024-03-08T02:27:22;21.13;;;9.65;;
80536;SDS011;69867;47.074;15.404;2024-03-08T02:29:48;17.77;;;8.95;;
80536;SDS011;69867;47.074;15.404;2024-03-08T02:32:14;16.33;;;8.27;;
80536;SDS011;69867;47.074;15.404;2024-03-08T02:34:39;15.55;;;8.35;;
80536;SDS011;69867;47.074;15.404;2024-03-08T02:37:05;17.10;;;8.05;;
80536;SDS011;69867;47.074;15.404;2024-03-08T02:39:30;19.27;;;9.45;;
80536;SDS011;69867;47.074;15.404;2024-03-08T02:41:55;17.23;;;8.35;;
80536;SDS011;69867;47.074;15.404;2024-03-08T02:44:21;15.70;;;8.63;;
80536;SDS011;69867;47.074;15.404;2024-03-08T02:46:46;15.57;;;7.90;;
80536;SDS011;69867;47.074;15.404;2024-03-08T02:49:11;14.02;;;6.90;;
80536;SDS011;69867;47.074;15.404;2024-03-08T02:51:37;15.07;;;7.38;;
80536;SDS011;69867;47.074;15.404;2024-03-08T02:54:02;14.70;;;7.35;;
80536;SDS011;69867;47.074;15.404;2024-03-08T02:56:28;20.70;;;8.32;;
80536;SDS011;69867;47.074;15.404;2024-03-08T02:58:53;16.42;;;8.00;;
80536;SDS011;69867;47.074;15.404;2024-03-08T03:01:18;18.25;;;8.60;;
80536;SDS011;69867;47.074;15.404;2024-03-08T03:03:44;18.98;;;8.90;;
80536;SDS011;69867;47.074;15.404;2024-03-08T03:06:09;18.70;;;7.82;;
80536;SDS011;69867;47.074;15.404;2024-03-08T03:08:34;14.75;;;7.32;;
80536;SDS011;69867;47.074;15.404;2024-03-08T03:11:00;20.52;;;9.13;;
80536;SDS011;69867;47.074;15.404;2024-03-08T03:13:25;18.38;;;9.18;;
80536;SDS011;69867;47.074;15.404;2024-03-08T03:15:50;22.95;;;8.65;;
80536;SDS011;69867;47.074;15.404;2024-03-08T03:18:16;17.05;;;8.93;;
80536;SDS011;69867;47.074;15.404;2024-03-08T03:20:41;17.27;;;8.90;;
80536;SDS011;69867;47.074;15.404;2024-03-08T03:23:06;18.10;;;8.23;;
80536;SDS011;69867;47.074;15.404;2024-03-08T03:25:32;20.38;;;9.95;;
80536;SDS011;69867;47.074;15.404;2024-03-08T03:27:57;15.38;;;8.63;;
80536;SDS011;69867;47.074;15.404;2024-03-08T03:30:23;19.52;;;8.93;;
80536;SDS011;69867;47.074;15.404;2024-03-08T03:32:49;17.42;;;9.15;;
80536;SDS011;69867;47.074;15.404;2024-03-08T03:35:15;18.95;;;9.30;;
80536;SDS011;69867;47.074;15.404;2024-03-08T03:37:41;18.77;;;8.18;;
80536;SDS011;69867;47.074;15.404;2024-03-08T03:40:07;16.38;;;8.57;;
80536;SDS011;69867;47.074;15.404;2024-03-08T03:42:33;18.17;;;8.43;;
80536;SDS011;69867;47.074;15.404;2024-03-08T03:44:58;16.77;;;7.75;;
80536;SDS011;69867;47.074;15.404;2024-03-08T03:47:24;15.95;;;7.95;;
80536;SDS011;69867;47.074;15.404;2024-03-08T03:49:49;17.67;;;8.32;;
80536;SDS011;69867;47.074;15.404;2024-03-08T03:52:14;20.15;;;9.70;;
80536;SDS011;69867;47.074;15.404;2024-03-08T03:54:40;19.02;;;7.90;;
80536;SDS011;69867;47.074;15.404;2024-03-08T03:57:05;15.63;;;7.57;;
80536;SDS011;69867;47.074;15.404;2024-03-08T03:59:30;17.98;;;8.45;;
80536;SDS011;69867;47.074;15.404;2024-03-08T04:01:56;17.08;;;8.13;;
80536;SDS011;69867;47.074;15.404;2024-03-08T04:04:21;16.95;;;8.10;;
80536;SDS011;69867;47.074;15.404;2024-03-08T04:06:47;17.98;;;9.15;;
80536;SDS011;69867;47.074;15.404;2024-03-08T04:09:12;17.00;;;7.75;;
80536;SDS011;69867;47.074;15.404;2024-03-08T04:11:38;17.60;;;8.52;;
80536;SDS011;69867;47.074;15.404;2024-03-08T04:14:04;18.50;;;8.68;;
80536;SDS011;69867;47.074;15.404;2024-03-08T04:16:29;15.05;;;7.78;;
80536;SDS011;69867;47.074;15.404;2024-03-08T04:18:54;17.05;;;8.52;;
80536;SDS011;69867;47.074;15.404;2024-03-08T04:21:20;17.42;;;8.48;;
80536;SDS011;69867;47.074;15.404;2024-03-08T04:23:45;14.02;;;6.65;;
80536;SDS011;69867;47.074;15.404;2024-03-08T04:26:11;19.50;;;9.15;;
80536;SDS011;69867;47.074;15.404;2024-03-08T04:28:36;16.67;;;8.38;;
80536;SDS011;69867;47.074;15.404;2024-03-08T04:31:02;16.42;;;7.72;;
80536;SDS011;69867;47.074;15.404;2024-03-08T04:33:27;14.50;;;7.40;;
80536;SDS011;69867;47.074;15.404;2024-03-08T04:35:53;17.15;;;8.63;;
80536;SDS011;69867;47.074;15.404;2024-03-08T04:38:18;15.65;;;7.78;;
80536;SDS011;69867;47.074;15.404;2024-03-08T04:40:43;17.38;;;8.30;;
80536;SDS011;69867;47.074;15.404;2024-03-08T04:43:09;18.58;;;8.45;;
80536;SDS011;69867;47.074;15.404;2024-03-08T04:45:34;17.55;;;8.43;;
80536;SDS011;69867;47.074;15.404;2024-03-08T04:47:59;16.90;;;8.27;;
80536;SDS011;69867;47.074;15.404;2024-03-08T04:50:25;17.73;;;8.30;;
80536;SDS011;69867;47.074;15.404;2024-03-08T04:52:50;18.67;;;8.15;;
80536;SDS011;69867;47.074;15.404;2024-03-08T04:55:15;16.85;;;8.75;;
80536;SDS011;69867;47.074;15.404;2024-03-08T04:57:41;15.07;;;7.22;;
80536;SDS011;69867;47.074;15.404;2024-03-08T05:00:06;16.30;;;7.55;;
80536;SDS011;69867;47.074;15.404;2024-03-08T05:02:32;17.10;;;8.00;;
80536;SDS011;69867;47.074;15.404;2024-03-08T05:04:58;17.50;;;8.45;;
80536;SDS011;69867;47.074;15.404;2024-03-08T05:07:23;17.73;;;8.30;;
80536;SDS011;69867;47.074;15.404;2024-03-08T05:09:48;15.45;;;7.32;;
80536;SDS011;69867;47.074;15.404;2024-03-08T05:12:14;18.55;;;8.25;;
80536;SDS011;69867;47.074;15.404;2024-03-08T05:14:39;17.48;;;8.15;;
80536;SDS011;69867;47.074;15.404;2024-03-08T05:17:04;18.17;;;8.68;;
80536;SDS011;69867;47.074;15.404;2024-03-08T05:19:30;18.08;;;8.13;;
80536;SDS011;69867;47.074;15.404;2024-03-08T05:21:55;19.02;;;8.18;;
80536;SDS011;69867;47.074;15.404;2024-03-08T05:24:20;16.95;;;8.23;;
80536;SDS011;69867;47.074;15.404;2024-03-08T05:26:46;17.60;;;7.90;;
80536;SDS011;69867;47.074;15.404;2024-03-08T05:29:11;19.25;;;8.63;;
80536;SDS011;69867;47.074;15.404;2024-03-08T05:31:50;16.13;;;8.32;;
80536;SDS011;69867;47.074;15.404;2024-03-08T05:34:16;17.15;;;7.63;;
80536;SDS011;69867;47.074;15.404;2024-03-08T05:36:42;18.20;;;8.35;;
80536;SDS011;69867;47.074;15.404;2024-03-08T05:39:07;15.70;;;7.28;;
80536;SDS011;69867;47.074;15.404;2024-03-08T05:41:32;17.15;;;8.50;;
80536;SDS011;69867;47.074;15.404;2024-03-08T05:43:58;16.90;;;8.02;;
80536;SDS011;69867;47.074;15.404;2024-03-08T05:46:23;15.55;;;7.75;;
80536;SDS011;69867;47.074;15.404;2024-03-08T05:48:49;16.20;;;6.53;;
80536;SDS011;69867;47.074;15.404;2024-03-08T05:51:14;16.75;;;7.43;;
80536;SDS011;69867;47.074;15.404;2024-03-08T05:53:39;16.05;;;7.47;;
80536;SDS011;69867;47.074;15.404;2024-03-08T05:56:05;14.00;;;6.70;;
80536;SDS011;69867;47.074;15.404;2024-03-08T05:58:30;14.90;;;8.02;;
80536;SDS011;69867;47.074;15.404;2024-03-08T06:00:56;15.88;;;7.57;;
80536;SDS011;69867;47.074;15.404;2024-03-08T06:03:21;18.27;;;7.78;;
80536;SDS011;69867;47.074;15.404;2024-03-08T06:05:47;15.25;;;7.53;;
80536;SDS011;69867;47.074;15.404;2024-03-08T06:08:13;15.52;;;7.22;;
80536;SDS011;69867;47.074;15.404;2024-03-08T06:10:38;14.95;;;7.35;;
80536;SDS011;69867;47.074;15.404;2024-03-08T06:13:04;14.15;;;6.50;;
80536;SDS011;69867;47.074;15.404;2024-03-08T06:15:29;15.75;;;7.18;;
80536;SDS011;69867;47.074;15.404;2024-03-08T06:17:54;13.77;;;6.35;;
80536;SDS011;69867;47.074;15.404;2024-03-08T06:20:20;15.98;;;7.40;;
80536;SDS011;69867;47.074;15.404;2024-03-08T06:22:45;15.73;;;7.47;;
80536;SDS011;69867;47.074;15.404;2024-03-08T06:25:11;21.02;;;9.38;;
80536;SDS011;69867;47.074;15.404;2024-03-08T06:27:37;16.15;;;8.00;;
80536;SDS011;69867;47.074;15.404;2024-03-08T06:30:02;20.25;;;9.25;;
80536;SDS011;69867;47.074;15.404;2024-03-08T06:32:28;16.08;;;9.02;;
80536;SDS011;69867;47.074;15.404;2024-03-08T06:34:53;23.17;;;9.73;;
80536;SDS011;69867;47.074;15.404;2024-03-08T06:37:18;18.15;;;9.27;;
80536;SDS011;69867;47.074;15.404;2024-03-08T06:39:44;18.63;;;9.35;;
80536;SDS011;69867;47.074;15.404;2024-03-08T06:42:09;22.30;;;9.13;;
80536;SDS011;69867;47.074;15.404;2024-03-08T06:44:34;16.67;;;8.60;;
80536;SDS011;69867;47.074;15.404;2024-03-08T06:47:00;15.55;;;7.72;;
80536;SDS011;69867;47.074;15.404;2024-03-08T06:49:25;17.80;;;8.70;;
80536;SDS011;69867;47.074;15.404;2024-03-08T06:51:50;16.60;;;8.07;;
80536;SDS011;69867;47.074;15.404;2024-03-08T06:54:16;22.25;;;9.73;;
80536;SDS011;69867;47.074;15.404;2024-03-08T06:56:41;17.42;;;8.10;;
80536;SDS011;69867;47.074;15.404;2024-03-08T06:59:06;16.67;;;8.10;;
80536;SDS011;69867;47.074;15.404;2024-03-08T07:01:32;17.85;;;8.70;;
80536;SDS011;69867;47.074;15.404;2024-03-08T07:03:57;19.58;;;9.05;;
80536;SDS011;69867;47.074;15.404;2024-03-08T07:06:23;17.10;;;8.98;;
80536;SDS011;69867;47.074;15.404;2024-03-08T07:08:48;20.45;;;8.55;;
80536;SDS011;69867;47.074;15.404;2024-03-08T07:11:14;17.75;;;9.35;;
80536;SDS011;69867;47.074;15.404;2024-03-08T07:13:40;17.15;;;8.57;;
80536;SDS011;69867;47.074;15.404;2024-03-08T07:16:05;18.70;;;9.02;;
80536;SDS011;69867;47.074;15.404;2024-03-08T07:18:31;16.98;;;8.70;;
80536;SDS011;69867;47.074;15.404;2024-03-08T07:20:56;16.65;;;8.43;;
80536;SDS011;69867;47.074;15.404;2024-03-08T07:23:22;18.67;;;8.82;;
80536;SDS011;69867;47.074;15.404;2024-03-08T07:25:48;19.77;;;8.63;;
80536;SDS011;69867;47.074;15.404;2024-03-08T07:28:13;15.85;;;8.05;;
80536;SDS011;69867;47.074;15.404;2024-03-08T07:30:38;14.55;;;7.22;;
80536;SDS011;69867;47.074;15.404;2024-03-08T07:33:04;16.42;;;7.95;;
80536;SDS011;69867;47.074;15.404;2024-03-08T07:35:30;16.00;;;7.70;;
80536;SDS011;69867;47.074;15.404;2024-03-08T07:37:55;16.48;;;7.60;;
80536;SDS011;69867;47.074;15.404;2024-03-08T07:40:21;18.00;;;8.32;;
80536;SDS011;69867;47.074;15.404;2024-03-08T07:42:46;16.65;;;8.77;;
80536;SDS011;69867;47.074;15.404;2024-03-08T07:45:12;15.95;;;8.30;;
80536;SDS011;69867;47.074;15.404;2024-03-08T07:47:37;15.07;;;7.40;;
80536;SDS011;69867;47.074;15.404;2024-03-08T07:50:03;17.13;;;8.02;;
80536;SDS011;69867;47.074;15.404;2024-03-08T07:52:28;15.00;;;7.57;;
80536;SDS011;69867;47.074;15.404;2024-03-08T07:54:54;17.00;;;8.60;;
80536;SDS011;69867;47.074;15.404;2024-03-08T07:57:19;14.95;;;7.82;;
80536;SDS011;69867;47.074;15.404;2024-03-08T07:59:44;17.52;;;9.32;;
80536;SDS011;69867;47.074;15.404;2024-03-08T08:02:10;21.88;;;9.98;;
80536;SDS011;69867;47.074;15.404;2024-03-08T08:04:35;20.55;;;10.23;;
80536;SDS011;69867;47.074;15.404;2024-03-08T08:07:01;18.75;;;10.38;;
80536;SDS011;69867;47.074;15.404;2024-03-08T08:09:26;24.15;;;10.88;;
80536;SDS011;69867;47.074;15.404;2024-03-08T08:11:51;22.30;;;11.38;;
80536;SDS011;69867;47.074;15.404;2024-03-08T08:14:17;21.15;;;10.63;;
80536;SDS011;69867;47.074;15.404;2024-03-08T08:16:42;21.65;;;9.95;;
80536;SDS011;69867;47.074;15.404;2024-03-08T08:19:07;23.83;;;10.95;;
80536;SDS011;69867;47.074;15.404;2024-03-08T08:21:36;20.00;;;9.60;;
80536;SDS011;69867;47.074;15.404;2024-03-08T08:24:02;21.40;;;11.50;;
80536;SDS011;69867;47.074;15.404;2024-03-08T08:26:28;25.25;;;14.18;;
80536;SDS011;69867;47.074;15.404;2024-03-08T08:28:54;19.90;;;10.15;;
80536;SDS011;69867;47.074;15.404;2024-03-08T08:31:20;16.75;;;9.00;;
80536;SDS011;69867;47.074;15.404;2024-03-08T08:33:45;17.35;;;9.07;;
80536;SDS011;69867;47.074;15.404;2024-03-08T08:36:10;18.40;;;9.73;;
80536;SDS011;69867;47.074;15.404;2024-03-08T08:38:36;15.35;;;8.80;;
80536;SDS011;69867;47.074;15.404;2024-03-08T08:41:01;19.77;;;9.98;;
80536;SDS011;69867;47.074;15.404;2024-03-08T08:43:26;19.48;;;8.68;;
80536;SDS011;69867;47.074;15.404;2024-03-08T08:45:52;19.02;;;9.25;;
80536;SDS011;69867;47.074;15.404;2024-03-08T08:48:17;15.93;;;8.18;;
80536;SDS011;69867;47.074;15.404;2024-03-08T08:50:43;16.52;;;9.32;;
80536;SDS011;69867;47.074;15.404;2024-03-08T08:53:08;13.82;;;8.55;;
80536;SDS011;69867;47.074;15.404;2024-03-08T08:55:33;16.13;;;8.73;;
80536;SDS011;69867;47.074;15.404;2024-03-08T08:57:59;20.90;;;9.00;;
80536;SDS011;69867;47.074;15.404;2024-03-08T09:00:24;17.25;;;8.55;;
80536;SDS011;69867;47.074;15.404;2024-03-08T09:02:49;16.02;;;7.93;;
80536;SDS011;69867;47.074;15.404;2024-03-08T09:05:15;16.58;;;8.88;;
80536;SDS011;69867;47.074;15.404;2024-03-08T09:07:40;14.18;;;7.38;;
80536;SDS011;69867;47.074;15.404;2024-03-08T09:10:06;15.30;;;7.35;;
80536;SDS011;69867;47.074;15.404;2024-03-08T09:12:31;15.32;;;7.57;;
80536;SDS011;69867;47.074;15.404;2024-03-08T09:14:57;14.73;;;7.38;;
80536;SDS011;69867;47.074;15.404;2024-03-08T09:17:22;14.73;;;8.00;;
80536;SDS011;69867;47.074;15.404;2024-03-08T09:19:48;11.70;;;7.78;;
80536;SDS011;69867;47.074;15.404;2024-03-08T09:22:13;18.02;;;7.53;;
80536;SDS011;69867;47.074;15.404;2024-03-08T09:24:39;11.93;;;6.65;;
80536;SDS011;69867;47.074;15.404;2024-03-08T09:27:04;14.18;;;7.20;;
80536;SDS011;69867;47.074;15.404;2024-03-08T09:29:30;14.32;;;8.00;;
80536;SDS011;69867;47.074;15.404;2024-03-08T09:31:55;13.48;;;6.75;;
80536;SDS011;69867;47.074;15.404;2024-03-08T09:34:21;11.85;;;6.97;;
80536;SDS011;69867;47.074;15.404;2024-03-08T09:36:46;12.95;;;7.15;;
80536;SDS011;69867;47.074;15.404;2024-03-08T09:39:11;14.38;;;7.47;;
80536;SDS011;69867;47.074;15.404;2024-03-08T09:41:37;13.60;;;6.55;;
80536;SDS011;69867;47.074;15.404;2024-03-08T09:44:03;12.85;;;6.82;;
80536;SDS011;69867;47.074;15.404;2024-03-08T09:46:29;12.45;;;6.40;;
80536;SDS011;69867;47.074;15.404;2024-03-08T09:48:54;13.35;;;6.55;;
80536;SDS011;69867;47.074;15.404;2024-03-08T09:51:21;12.52;;;6.30;;
80536;SDS011;69867;47.074;15.404;2024-03-08T09:53:51;12.45;;;6.60;;
80536;SDS011;69867;47.074;15.404;2024-03-08T09:56:17;13.10;;;6.50;;
80536;SDS011;69867;47.074;15.404;2024-03-08T09:58:42;15.77;;;7.50;;
80536;SDS011;69867;47.074;15.404;2024-03-08T10:01:08;13.40;;;7.10;;
80536;SDS011;69867;47.074;15.404;2024-03-08T10:03:33;13.63;;;7.15;;
80536;SDS011;69867;47.074;15.404;2024-03-08T10:05:59;12.82;;;7.45;;
80536;SDS011;69867;47.074;15.404;2024-03-08T10:08:25;14.35;;;7.15;;
80536;SDS011;69867;47.074;15.404;2024-03-08T10:10:51;12.55;;;6.65;;
80536;SDS011;69867;47.074;15.404;2024-03-08T10:13:16;13.90;;;6.68;;
80536;SDS011;69867;47.074;15.404;2024-03-08T10:15:42;12.48;;;6.40;;
80536;SDS011;69867;47.074;15.404;2024-03-08T10:18:07;12.43;;;5.95;;
80536;SDS011;69867;47.074;15.404;2024-03-08T10:20:33;10.93;;;6.15;;
80536;SDS011;69867;47.074;15.404;2024-03-08T10:23:02;13.77;;;5.80;;
80536;SDS011;69867;47.074;15.404;2024-03-08T10:25:29;11.30;;;6.13;;
80536;SDS011;69867;47.074;15.404;2024-03-08T10:27:54;11.43;;;6.32;;
80536;SDS011;69867;47.074;15.404;2024-03-08T10:30:20;13.75;;;6.57;;
80536;SDS011;69867;47.074;15.404;2024-03-08T10:32:46;10.02;;;5.10;;
80536;SDS011;69867;47.074;15.404;2024-03-08T10:35:11;12.07;;;6.15;;
80536;SDS011;69867;47.074;15.404;2024-03-08T10:37:39;12.82;;;6.35;;
80536;SDS011;69867;47.074;15.404;2024-03-08T10:40:10;10.43;;;5.65;;
80536;SDS011;69867;47.074;15.404;2024-03-08T10:42:55;10.90;;;5.88;;
80536;SDS011;69867;47.074;15.404;2024-03-08T10:50:49;10.57;;;5.35;;
80536;SDS011;69867;47.074;15.404;2024-03-08T10:53:14;11.73;;;5.95;;
80536;SDS011;69867;47.074;15.404;2024-03-08T10:55:40;10.65;;;5.63;;
80536;SDS011;69867;47.074;15.404;2024-03-08T10:58:07;10.13;;;5.15;;
80536;SDS011;69867;47.074;15.404;2024-03-08T11:00:33;10.85;;;5.15;;
80536;SDS011;69867;47.074;15.404;2024-03-08T11:02:59;8.25;;;4.70;;
80536;SDS011;69867;47.074;15.404;2024-03-08T11:05:42;8.82;;;4.95;;
80536;SDS011;69867;47.074;15.404;2024-03-08T11:10:49;11.52;;;5.82;;
80536;SDS011;69867;47.074;15.404;2024-03-08T11:16:02;9.90;;;5.43;;
80536;SDS011;69867;47.074;15.404;2024-03-08T11:18:48;12.82;;;6.22;;
80536;SDS011;69867;47.074;15.404;2024-03-08T11:21:13;12.43;;;6.38;;
80536;SDS011;69867;47.074;15.404;2024-03-08T11:23:39;12.10;;;6.18;;
80536;SDS011;69867;47.074;15.404;2024-03-08T11:26:04;11.68;;;6.43;;
80536;SDS011;69867;47.074;15.404;2024-03-08T11:28:42;11.82;;;6.03;;
80536;SDS011;69867;47.074;15.404;2024-03-08T11:33:39;12.60;;;6.05;;
80536;SDS011;69867;47.074;15.404;2024-03-08T11:36:11;9.38;;;5.03;;
80536;SDS011;69867;47.074;15.404;2024-03-08T11:38:47;10.32;;;5.45;;
80536;SDS011;69867;47.074;15.404;2024-03-08T11:41:14;12.30;;;6.00;;
80536;SDS011;69867;47.074;15.404;2024-03-08T11:43:49;9.98;;;4.93;;
80536;SDS011;69867;47.074;15.404;2024-03-08T11:46:26;11.80;;;5.68;;
80536;SDS011;69867;47.074;15.404;2024-03-08T11:48:54;10.80;;;5.50;;
80536;SDS011;69867;47.074;15.404;2024-03-08T11:51:19;10.13;;;4.82;;
80536;SDS011;69867;47.074;15.404;2024-03-08T11:53:45;10.93;;;5.18;;
80536;SDS011;69867;47.074;15.404;2024-03-08T11:56:11;10.70;;;5.22;;
80536;SDS011;69867;47.074;15.404;2024-03-08T11:58:40;10.88;;;5.30;;
80536;SDS011;69867;47.074;15.404;2024-03-08T12:01:07;9.07;;;4.50;;
80536;SDS011;69867;47.074;15.404;2024-03-08T12:03:33;8.88;;;5.00;;
80536;SDS011;69867;47.074;15.404;2024-03-08T12:06:01;8.88;;;5.25;;
80536;SDS011;69867;47.074;15.404;2024-03-08T12:08:27;9.80;;;4.82;;
80536;SDS011;69867;47.074;15.404;2024-03-08T12:10:53;10.27;;;5.72;;
80536;SDS011;69867;47.074;15.404;2024-03-08T12:13:18;10.90;;;5.35;;
80536;SDS011;69867;47.074;15.404;2024-03-08T12:15:44;10.07;;;5.53;;
80536;SDS011;69867;47.074;15.404;2024-03-08T12:18:10;9.40;;;4.80;;
80536;SDS011;69867;47.074;15.404;2024-03-08T12:20:35;9.35;;;4.78;;
80536;SDS011;69867;47.074;15.404;2024-03-08T12:23:01;12.32;;;5.80;;
80536;SDS011;69867;47.074;15.404;2024-03-08T12:25:28;10.13;;;5.25;;
80536;SDS011;69867;47.074;15.404;2024-03-08T12:27:55;12.52;;;5.35;;
80536;SDS011;69867;47.074;15.404;2024-03-08T12:30:22;10.18;;;5.72;;
80536;SDS011;69867;47.074;15.404;2024-03-08T12:32:59;11.82;;;5.78;;
80536;SDS011;69867;47.074;15.404;2024-03-08T12:35:28;10.15;;;5.93;;
80536;SDS011;69867;47.074;15.404;2024-03-08T12:37:56;12.90;;;5.85;;
80536;SDS011;69867;47.074;15.404;2024-03-08T12:40:40;11.27;;;5.13;;
80536;SDS011;69867;47.074;15.404;2024-03-08T12:43:05;9.75;;;5.38;;
80536;SDS011;69867;47.074;15.404;2024-03-08T12:45:31;11.10;;;5.70;;
80536;SDS011;69867;47.074;15.404;2024-03-08T12:47:56;13.13;;;5.90;;
80536;SDS011;69867;47.074;15.404;2024-03-08T12:50:22;10.80;;;5.57;;
80536;SDS011;69867;47.074;15.404;2024-03-08T12:52:48;10.13;;;5.30;;
80536;SDS011;69867;47.074;15.404;2024-03-08T12:55:14;10.10;;;4.68;;
80536;SDS011;69867;47.074;15.404;2024-03-08T12:57:40;9.25;;;5.18;;
80536;SDS011;69867;47.074;15.404;2024-03-08T13:00:06;9.30;;;6.00;;
80536;SDS011;69867;47.074;15.404;2024-03-08T13:02:31;11.02;;;5.63;;
80536;SDS011;69867;47.074;15.404;2024-03-08T13:04:57;8.38;;;4.90;;
80536;SDS011;69867;47.074;15.404;2024-03-08T13:07:23;9.95;;;5.15;;
80536;SDS011;69867;47.074;15.404;2024-03-08T13:09:49;8.85;;;5.15;;
80536;SDS011;69867;47.074;15.404;2024-03-08T13:12:14;8.27;;;4.50;;
80536;SDS011;69867;47.074;15.404;2024-03-08T13:14:42;10.38;;;5.70;;
80536;SDS011;69867;47.074;15.404;2024-03-08T13:17:08;9.70;;;5.28;;
80536;SDS011;69867;47.074;15.404;2024-03-08T13:19:33;10.38;;;6.05;;
80536;SDS011;69867;47.074;15.404;2024-03-08T13:21:58;11.65;;;5.63;;
80536;SDS011;69867;47.074;15.404;2024-03-08T13:24:24;9.73;;;5.38;;
80536;SDS011;69867;47.074;15.404;2024-03-08T13:26:49;10.18;;;5.70;;
80536;SDS011;69867;47.074;15.404;2024-03-08T13:29:15;8.73;;;5.60;;
80536;SDS011;69867;47.074;15.404;2024-03-08T13:31:40;10.82;;;5.97;;
80536;SDS011;69867;47.074;15.404;2024-03-08T13:34:05;10.18;;;5.50;;
80536;SDS011;69867;47.074;15.404;2024-03-08T13:36:31;10.57;;;5.68;;
80536;SDS011;69867;47.074;15.404;2024-03-08T13:38:56;10.52;;;5.50;;
80536;SDS011;69867;47.074;15.404;2024-03-08T13:41:21;11.25;;;5.53;;
80536;SDS011;69867;47.074;15.404;2024-03-08T13:43:47;9.80;;;5.22;;
80536;SDS011;69867;47.074;15.404;2024-03-08T13:46:12;10.70;;;5.90;;
80536;SDS011;69867;47.074;15.404;2024-03-08T13:48:38;12.27;;;5.90;;
80536;SDS011;69867;47.074;15.404;2024-03-08T13:51:06;10.30;;;5.15;;
80536;SDS011;69867;47.074;15.404;2024-03-08T13:53:32;10.93;;;5.25;;
80536;SDS011;69867;47.074;15.404;2024-03-08T13:55:58;12.02;;;6.50;;
80536;SDS011;69867;47.074;15.404;2024-03-08T13:58:23;11.93;;;5.43;;
80536;SDS011;69867;47.074;15.404;2024-03-08T14:00:49;10.07;;;5.45;;
80536;SDS011;69867;47.074;15.404;2024-03-08T14:03:14;11.23;;;5.35;;
80536;SDS011;69867;47.074;15.404;2024-03-08T14:05:40;11.07;;;5.53;;
80536;SDS011;69867;47.074;15.404;2024-03-08T14:08:06;11.38;;;5.35;;
80536;SDS011;69867;47.074;15.404;2024-03-08T14:10:31;11.43;;;6.18;;
80536;SDS011;69867;47.074;15.404;2024-03-08T14:12:57;8.75;;;5.28;;
80536;SDS011;69867;47.074;15.404;2024-03-08T14:15:23;12.52;;;5.50;;
80536;SDS011;69867;47.074;15.404;2024-03-08T14:17:55;10.88;;;5.63;;
80536;SDS011;69867;47.074;15.404;2024-03-08T14:20:20;11.98;;;5.93;;
80536;SDS011;69867;47.074;15.404;2024-03-08T14:22:46;10.65;;;5.35;;
80536;SDS011;69867;47.074;15.404;2024-03-08T14:25:11;10.40;;;5.00;;
80536;SDS011;69867;47.074;15.404;2024-03-08T14:27:37;13.52;;;6.53;;
80536;SDS011;69867;47.074;15.404;2024-03-08T14:30:02;13.43;;;6.03;;